createdAt,value
2023-07-03T00:01:53.538Z,6.67
2023-07-03T00:04:24.176Z,6.40
2023-07-03T00:06:54.557Z,6.45
2023-07-03T00:09:24.268Z,6.90
2023-07-03T00:11:54.391Z,7.20
2023-07-03T00:14:24.503Z,7.13
2023-07-03T00:16:56.385Z,7.27
2023-07-03T00:22:01.158Z,7.33
2023-07-03T00:24:32.960Z,7.43
2023-07-03T00:27:03.081Z,7.33
2023-07-03T00:29:34.636Z,7.80
2023-07-03T00:34:34.057Z,7.30
2023-07-03T00:37:07.837Z,7.30
2023-07-03T00:39:37.976Z,7.53
2023-07-03T00:42:09.784Z,7.00
2023-07-03T00:44:39.846Z,6.77
2023-07-03T00:47:11.859Z,7.13
2023-07-03T00:52:12.568Z,7.50
2023-07-03T00:54:43.191Z,7.60
2023-07-03T00:57:15.350Z,7.40
2023-07-03T00:59:46.495Z,7.53
2023-07-03T01:02:21.294Z,7.67
2023-07-03T01:04:57.067Z,8.20
2023-07-03T01:07:31.189Z,7.97
2023-07-03T01:10:04.809Z,7.90
2023-07-03T01:12:38.544Z,8.13
2023-07-03T01:15:14.799Z,7.67
2023-07-03T01:17:48.078Z,8.10
2023-07-03T01:20:20.456Z,8.20
2023-07-03T01:23:00.374Z,8.60
2023-07-03T01:25:32.483Z,7.90
2023-07-03T01:28:04.714Z,7.97
2023-07-03T01:30:36.899Z,8.33
2023-07-03T01:33:08.459Z,8.37
2023-07-03T01:35:40.157Z,8.33
2023-07-03T01:38:11.241Z,9.03
2023-07-03T01:40:41.416Z,8.08
2023-07-03T01:43:13.320Z,8.33
2023-07-03T01:48:11.955Z,8.20
2023-07-03T01:50:43.753Z,7.83
2023-07-03T01:53:19.201Z,7.87
2023-07-03T01:55:57.286Z,8.97
2023-07-03T01:58:33.367Z,9.00
2023-07-03T02:01:06.215Z,8.40
2023-07-03T02:03:41.261Z,8.97
2023-07-03T02:06:16.799Z,8.93
2023-07-03T02:08:48.816Z,9.07
2023-07-03T02:11:21.716Z,8.57
2023-07-03T02:13:54.358Z,9.43
2023-07-03T02:16:30.188Z,9.13
2023-07-03T02:19:01.128Z,8.90
2023-07-03T02:21:31.045Z,8.60
2023-07-03T02:24:01.789Z,9.33
2023-07-03T02:26:31.695Z,9.60
2023-07-03T02:29:02.029Z,8.67
2023-07-03T02:31:32.753Z,9.43
2023-07-03T02:34:02.458Z,9.27
2023-07-03T02:36:37.503Z,9.30
2023-07-03T02:39:09.869Z,9.83
2023-07-03T02:41:39.769Z,9.30
2023-07-03T02:44:10.922Z,9.35
2023-07-03T02:46:42.828Z,8.70
2023-07-03T02:49:12.934Z,10.15
2023-07-03T02:54:14.057Z,10.03
2023-07-03T02:56:44.584Z,10.57
2023-07-03T02:59:15.531Z,9.95
2023-07-03T03:01:45.847Z,10.03
2023-07-03T03:04:16.860Z,9.37
2023-07-03T03:06:47.306Z,9.87
2023-07-03T03:09:17.459Z,9.93
2023-07-03T03:11:47.543Z,9.83
2023-07-03T03:14:17.351Z,9.70
2023-07-03T03:16:47.434Z,9.97
2023-07-03T03:19:17.828Z,9.90
2023-07-03T03:21:50.480Z,10.00
2023-07-03T03:24:20.941Z,9.35
2023-07-03T03:26:51.537Z,11.03
2023-07-03T03:29:21.574Z,9.47
2023-07-03T03:31:51.774Z,9.67
2023-07-03T03:34:21.694Z,10.13
2023-07-03T03:36:51.810Z,9.80
2023-07-03T03:39:21.922Z,10.37
2023-07-03T03:41:52.046Z,10.00
2023-07-03T03:44:22.164Z,10.13
2023-07-03T03:46:54.343Z,10.10
2023-07-03T03:49:25.677Z,10.77
2023-07-03T03:51:56.612Z,9.60
2023-07-03T03:54:28.390Z,10.30
2023-07-03T03:56:58.488Z,10.40
2023-07-03T03:59:29.018Z,10.57
2023-07-03T04:01:59.185Z,9.90
2023-07-03T04:04:29.800Z,10.80
2023-07-03T04:07:00.393Z,11.10
2023-07-03T04:09:30.517Z,11.37
2023-07-03T04:12:01.123Z,10.70
2023-07-03T04:14:31.366Z,11.13
2023-07-03T04:17:02.344Z,10.63
2023-07-03T04:19:32.624Z,10.23
2023-07-03T04:22:02.753Z,12.57
2023-07-03T04:24:32.857Z,11.07
2023-07-03T04:27:04.204Z,11.17
2023-07-03T04:29:34.324Z,11.53
2023-07-03T04:32:04.729Z,11.70
2023-07-03T04:34:34.990Z,12.00
2023-07-03T04:37:09.152Z,11.63
2023-07-03T04:39:39.104Z,11.63
2023-07-03T04:42:14.048Z,11.17
2023-07-03T04:44:44.125Z,12.23
2023-07-03T04:47:16.845Z,12.30
2023-07-03T04:49:49.206Z,12.10
2023-07-03T04:52:20.323Z,12.67
2023-07-03T04:54:50.267Z,12.65
2023-07-03T04:57:20.166Z,12.77
2023-07-03T04:59:50.628Z,11.87
2023-07-03T05:02:21.663Z,12.03
2023-07-03T05:04:52.003Z,13.03
2023-07-03T05:07:23.724Z,12.00
2023-07-03T05:09:54.454Z,12.43
2023-07-03T05:12:24.240Z,12.10
2023-07-03T05:14:55.712Z,12.17
2023-07-03T05:17:26.047Z,11.85
2023-07-03T05:19:56.978Z,12.33
2023-07-03T05:22:27.509Z,12.78
2023-07-03T05:24:57.629Z,11.03
2023-07-03T05:27:27.741Z,11.63
2023-07-03T05:29:58.654Z,10.37
2023-07-03T05:32:28.695Z,10.83
2023-07-03T05:34:58.910Z,11.20
2023-07-03T05:37:28.873Z,10.57
2023-07-03T05:39:58.951Z,9.73
2023-07-03T05:42:29.278Z,10.20
2023-07-03T05:44:59.804Z,10.10
2023-07-03T05:47:31.163Z,10.00
2023-07-03T05:50:01.267Z,9.65
2023-07-03T05:52:32.196Z,8.93
2023-07-03T05:55:02.306Z,9.23
2023-07-03T05:57:32.617Z,8.30
2023-07-03T06:00:06.372Z,8.70
2023-07-03T06:02:44.091Z,8.70
2023-07-03T06:05:16.310Z,9.53
2023-07-03T06:07:46.640Z,8.60
2023-07-03T06:10:16.571Z,8.87
2023-07-03T06:12:46.462Z,8.53
2023-07-03T06:15:17.004Z,8.77
2023-07-03T06:17:47.328Z,8.20
2023-07-03T06:20:17.504Z,8.17
2023-07-03T06:22:47.264Z,8.00
2023-07-03T06:25:17.463Z,8.40
2023-07-03T06:27:47.785Z,7.87
2023-07-03T06:30:17.601Z,8.00
2023-07-03T06:32:47.437Z,8.13
2023-07-03T06:35:18.959Z,7.83
2023-07-03T06:37:49.278Z,7.97
2023-07-03T06:40:20.011Z,7.60
2023-07-03T06:42:49.666Z,7.95
2023-07-03T06:45:22.294Z,8.00
2023-07-03T06:47:52.758Z,7.50
2023-07-03T06:50:22.774Z,7.40
2023-07-03T06:52:52.858Z,7.40
2023-07-03T06:55:22.984Z,6.85
2023-07-03T06:57:52.894Z,6.50
2023-07-03T07:00:24.089Z,6.47
2023-07-03T07:02:54.436Z,6.20
2023-07-03T07:05:24.558Z,5.63
2023-07-03T07:07:54.730Z,6.20
2023-07-03T07:10:25.296Z,6.63
2023-07-03T07:12:55.404Z,6.10
2023-07-03T07:15:25.571Z,6.47
2023-07-03T07:17:55.761Z,5.80
2023-07-03T07:20:25.528Z,5.37
2023-07-03T07:22:55.239Z,5.23
2023-07-03T07:25:25.153Z,5.63
2023-07-03T07:27:55.136Z,5.40
2023-07-03T07:30:25.103Z,5.87
2023-07-03T07:32:55.802Z,5.60
2023-07-03T07:35:25.903Z,5.43
2023-07-03T07:37:55.739Z,5.55
2023-07-03T07:40:26.845Z,5.78
2023-07-03T07:42:56.668Z,5.67
2023-07-03T07:45:26.354Z,5.57
2023-07-03T07:47:56.763Z,5.20
2023-07-03T07:50:28.806Z,5.80
2023-07-03T07:53:00.602Z,6.47
2023-07-03T07:55:30.655Z,5.60
2023-07-03T07:58:00.965Z,6.57
2023-07-03T08:00:30.977Z,5.50
2023-07-03T08:03:01.247Z,5.40
2023-07-03T08:05:32.130Z,6.03
2023-07-03T08:08:02.294Z,5.03
2023-07-03T08:10:32.188Z,5.80
2023-07-03T08:13:02.595Z,5.83
2023-07-03T08:15:32.500Z,5.35
2023-07-03T08:18:03.069Z,5.50
2023-07-03T08:20:32.874Z,5.37
2023-07-03T08:23:02.911Z,5.30
2023-07-03T08:25:32.993Z,5.23
2023-07-03T08:28:02.915Z,4.87
2023-07-03T08:30:33.221Z,4.83
2023-07-03T08:33:03.727Z,5.53
2023-07-03T08:38:05.441Z,5.60
2023-07-03T08:40:35.479Z,5.73
2023-07-03T08:43:07.448Z,5.73
2023-07-03T08:45:39.313Z,5.40
2023-07-03T08:48:15.395Z,5.30
2023-07-03T08:50:47.689Z,5.17
2023-07-03T08:53:20.873Z,5.40
2023-07-03T08:55:55.661Z,5.23
2023-07-03T08:58:26.235Z,5.10
2023-07-03T09:03:42.756Z,5.10
2023-07-03T09:06:19.523Z,5.50
2023-07-03T09:09:01.519Z,5.27
2023-07-03T09:11:36.713Z,5.50
2023-07-03T09:14:12.619Z,5.23
2023-07-03T09:16:45.826Z,4.97
2023-07-03T09:19:21.666Z,5.20
2023-07-03T09:21:55.687Z,5.03
2023-07-03T09:24:30.981Z,5.37
2023-07-03T09:27:10.381Z,5.00
2023-07-03T09:29:42.631Z,5.10
2023-07-03T09:32:23.137Z,5.13
2023-07-03T09:35:06.427Z,4.83
2023-07-03T09:37:38.482Z,5.00
2023-07-03T09:40:14.496Z,5.03
2023-07-03T09:42:45.100Z,5.23
2023-07-03T09:45:18.159Z,4.93
2023-07-03T09:47:54.070Z,5.17
2023-07-03T09:50:29.976Z,4.70
2023-07-03T09:53:08.539Z,5.27
2023-07-03T09:55:39.931Z,4.90
2023-07-03T09:58:15.929Z,4.62
2023-07-03T10:00:49.584Z,5.63
2023-07-03T10:08:45.803Z,4.90
2023-07-03T10:11:23.397Z,4.63
2023-07-03T10:13:54.581Z,5.10
2023-07-03T10:16:27.159Z,5.10
2023-07-03T10:18:59.286Z,4.70
2023-07-03T10:21:31.297Z,5.23
2023-07-03T10:24:02.433Z,4.70
2023-07-03T10:26:40.959Z,4.90
2023-07-03T10:29:20.046Z,5.47
2023-07-03T10:31:53.458Z,4.77
2023-07-03T10:34:28.512Z,5.83
2023-07-03T10:37:02.255Z,4.60
2023-07-03T10:39:42.055Z,4.43
2023-07-03T10:42:20.138Z,4.67
2023-07-03T10:44:57.622Z,4.63
2023-07-03T10:47:39.509Z,5.00
2023-07-03T10:50:12.047Z,4.60
2023-07-03T10:52:48.300Z,5.03
2023-07-03T10:55:25.467Z,5.17
2023-07-03T10:58:02.898Z,4.87
2023-07-03T11:00:40.391Z,5.07
2023-07-03T11:03:21.275Z,5.33
2023-07-03T11:05:57.757Z,5.60
2023-07-03T11:08:37.134Z,5.10
2023-07-03T11:11:15.445Z,4.90
2023-07-03T11:13:52.486Z,4.90
2023-07-03T11:16:29.966Z,5.00
2023-07-03T11:24:32.141Z,4.77
2023-07-03T11:29:44.836Z,5.33
2023-07-03T11:32:17.148Z,4.90
2023-07-03T11:40:27.472Z,5.07
2023-07-03T11:46:21.869Z,4.53
2023-07-03T11:48:57.918Z,5.00
2023-07-03T11:51:36.660Z,4.73
2023-07-03T11:54:19.658Z,4.77
2023-07-03T11:57:03.039Z,4.70
2023-07-03T11:59:38.760Z,4.87
2023-07-03T12:02:44.405Z,4.97
2023-07-03T12:05:54.184Z,4.97
2023-07-03T12:08:42.858Z,4.77
2023-07-03T12:11:15.050Z,4.63
2023-07-03T12:13:54.287Z,4.30
2023-07-03T12:16:28.408Z,4.80
2023-07-03T12:19:05.051Z,5.30
2023-07-03T12:21:46.854Z,5.20
2023-07-03T12:24:22.769Z,5.30
2023-07-03T12:26:55.492Z,4.90
2023-07-03T12:29:25.182Z,4.97
2023-07-03T12:32:05.862Z,4.75
2023-07-03T12:34:37.921Z,5.03
2023-07-03T12:37:15.390Z,5.20
2023-07-03T12:39:46.322Z,5.13
2023-07-03T12:42:19.876Z,5.03
2023-07-03T12:44:50.260Z,5.33
2023-07-03T12:47:22.253Z,5.50
2023-07-03T12:49:56.491Z,4.80
2023-07-03T12:52:27.478Z,5.63
2023-07-03T12:55:14.065Z,5.60
2023-07-03T12:57:46.050Z,5.60
2023-07-03T13:00:25.993Z,5.72
2023-07-03T13:03:00.639Z,5.30
2023-07-03T13:05:34.192Z,5.60
2023-07-03T13:08:07.741Z,4.93
2023-07-03T13:10:38.131Z,4.97
2023-07-03T13:13:10.889Z,5.37
2023-07-03T13:15:43.284Z,5.03
2023-07-03T13:18:20.579Z,4.70
2023-07-03T13:20:59.539Z,5.07
2023-07-03T13:23:32.454Z,5.17
2023-07-03T13:26:04.398Z,4.87
2023-07-03T13:28:36.700Z,4.93
2023-07-03T13:31:12.543Z,4.20
2023-07-03T13:33:44.662Z,4.00
2023-07-03T13:36:27.093Z,3.67
2023-07-03T13:39:07.913Z,4.07
2023-07-03T13:44:09.666Z,4.03
2023-07-03T13:46:40.585Z,4.27
2023-07-03T13:49:11.097Z,4.10
2023-07-03T13:51:42.697Z,3.80
2023-07-03T13:54:13.287Z,4.07
2023-07-03T13:56:44.172Z,4.00
2023-07-03T13:59:14.436Z,4.23
2023-07-03T14:01:45.279Z,3.62
2023-07-03T14:04:15.241Z,4.27
2023-07-03T14:06:46.114Z,3.83
2023-07-03T14:09:16.195Z,4.53
2023-07-03T14:11:46.521Z,4.20
2023-07-03T14:14:16.222Z,4.43
2023-07-03T14:16:46.552Z,4.77
2023-07-03T14:19:16.875Z,4.12
2023-07-03T14:21:46.792Z,4.30
2023-07-03T14:24:17.112Z,4.60
2023-07-03T14:26:46.818Z,4.30
2023-07-03T14:29:17.348Z,4.60
2023-07-03T14:31:49.358Z,4.22
2023-07-03T14:34:20.184Z,4.40
2023-07-03T14:36:50.172Z,4.70
2023-07-03T14:39:20.282Z,4.07
2023-07-03T14:41:50.602Z,4.62
2023-07-03T14:44:20.461Z,4.22
2023-07-03T14:46:50.637Z,4.50
2023-07-03T14:49:20.557Z,4.12
2023-07-03T14:51:50.874Z,4.07
2023-07-03T14:54:23.194Z,4.33
2023-07-03T14:56:53.364Z,4.67
2023-07-03T14:59:23.497Z,3.92
2023-07-03T15:01:53.265Z,4.25
2023-07-03T15:04:23.228Z,4.37
2023-07-03T15:06:54.054Z,4.37
2023-07-03T15:09:25.192Z,4.30
2023-07-03T15:11:55.511Z,4.30
2023-07-03T15:14:25.777Z,4.17
2023-07-03T15:16:55.689Z,3.83
2023-07-03T15:19:26.077Z,4.15
2023-07-03T15:21:56.396Z,4.27
2023-07-03T15:24:27.068Z,4.95
2023-07-03T15:26:57.387Z,4.62
2023-07-03T15:29:28.053Z,4.22
2023-07-03T15:34:28.208Z,4.57
2023-07-03T15:36:58.131Z,5.05
2023-07-03T15:39:28.262Z,4.57
2023-07-03T15:41:58.566Z,4.65
2023-07-03T15:44:28.595Z,4.23
2023-07-03T15:46:58.666Z,4.77
2023-07-03T15:49:31.657Z,5.20
2023-07-03T15:52:02.736Z,4.40
2023-07-03T15:54:35.788Z,3.77
2023-07-03T15:57:08.212Z,4.03
2023-07-03T15:59:38.208Z,4.35
2023-07-03T16:02:08.821Z,4.50
2023-07-03T16:04:38.924Z,4.42
2023-07-03T16:07:09.185Z,4.30
2023-07-03T16:09:39.295Z,4.90
2023-07-03T16:12:10.388Z,4.37
2023-07-03T16:17:09.519Z,4.83
2023-07-03T16:19:40.185Z,4.45
2023-07-03T16:22:10.298Z,4.05
2023-07-03T16:24:39.810Z,4.47
2023-07-03T16:27:09.928Z,4.50
2023-07-03T16:29:43.083Z,4.37
2023-07-03T16:32:13.441Z,4.60
2023-07-03T16:34:43.237Z,4.33
2023-07-03T16:37:13.272Z,4.27
2023-07-03T16:39:43.187Z,4.47
2023-07-03T16:42:13.125Z,4.63
2023-07-03T16:44:43.215Z,4.53
2023-07-03T16:47:13.194Z,4.70
2023-07-03T16:49:43.662Z,4.40
2023-07-03T16:52:15.006Z,3.92
2023-07-03T16:54:45.255Z,4.30
2023-07-03T16:57:15.042Z,5.13
2023-07-03T16:59:45.772Z,4.33
2023-07-03T17:02:16.215Z,5.33
2023-07-03T17:04:46.103Z,4.30
2023-07-03T17:07:16.126Z,5.20
2023-07-03T17:09:46.457Z,4.55
2023-07-03T17:12:16.372Z,4.37
2023-07-03T17:14:46.059Z,4.37
2023-07-03T17:17:17.679Z,4.57
2023-07-03T17:19:47.957Z,4.73
2023-07-03T17:22:17.662Z,4.97
2023-07-03T17:24:47.935Z,5.70
2023-07-03T17:27:17.905Z,5.30
2023-07-03T17:29:48.224Z,5.17
2023-07-03T17:32:18.143Z,4.70
2023-07-03T17:34:48.264Z,4.80
2023-07-03T17:37:18.582Z,5.22
2023-07-03T17:39:48.906Z,4.62
2023-07-03T17:42:19.148Z,4.83
2023-07-03T17:44:49.146Z,4.47
2023-07-03T17:47:19.682Z,4.27
2023-07-03T17:49:50.004Z,4.87
2023-07-03T17:52:20.109Z,4.80
2023-07-03T17:54:50.232Z,4.80
2023-07-03T17:57:20.484Z,4.87
2023-07-03T17:59:50.588Z,5.40
2023-07-03T18:02:20.599Z,5.50
2023-07-03T18:04:50.479Z,6.10
2023-07-03T18:07:21.361Z,5.30
2023-07-03T18:09:51.357Z,5.80
2023-07-03T18:12:21.668Z,5.27
2023-07-03T18:14:51.586Z,5.67
2023-07-03T18:17:21.716Z,5.30
2023-07-03T18:19:51.616Z,5.43
2023-07-03T18:22:21.736Z,5.43
2023-07-03T18:24:52.477Z,6.25
2023-07-03T18:27:22.795Z,6.40
2023-07-03T18:29:52.678Z,6.50
2023-07-03T18:32:23.808Z,5.77
2023-07-03T18:34:53.979Z,5.53
2023-07-03T18:37:26.135Z,5.90
2023-07-03T18:39:56.684Z,5.63
2023-07-03T18:42:27.010Z,5.97
2023-07-03T18:44:57.113Z,6.35
2023-07-03T18:47:30.703Z,6.97
2023-07-03T18:50:01.244Z,6.57
2023-07-03T18:52:31.564Z,6.50
2023-07-03T18:55:01.471Z,6.40
2023-07-03T18:57:32.540Z,6.20
2023-07-03T19:05:06.336Z,5.93
2023-07-03T19:07:36.791Z,7.20
2023-07-03T19:10:17.827Z,6.70
2023-07-03T19:12:48.912Z,7.23
2023-07-03T19:15:19.996Z,7.47
2023-07-03T19:17:50.124Z,5.92
2023-07-03T19:20:21.520Z,6.97
2023-07-03T19:22:52.857Z,6.87
2023-07-03T19:25:22.575Z,6.50
2023-07-03T19:27:52.677Z,7.37
2023-07-03T19:30:22.827Z,7.57
2023-07-03T19:32:52.929Z,6.87
2023-07-03T19:35:23.056Z,7.87
2023-07-03T19:37:54.388Z,7.17
2023-07-03T19:40:25.117Z,8.25
2023-07-03T19:42:55.227Z,8.28
2023-07-03T19:45:25.181Z,8.00
2023-07-03T19:47:55.212Z,7.03
2023-07-03T19:50:25.425Z,8.63
2023-07-03T19:52:55.701Z,7.70
2023-07-03T19:55:27.878Z,7.50
2023-07-03T19:57:58.196Z,7.50
2023-07-03T20:00:28.209Z,7.90
2023-07-03T20:02:58.496Z,7.27
2023-07-03T20:05:28.548Z,7.13
2023-07-03T20:07:59.489Z,9.00
2023-07-03T20:10:29.337Z,7.53
2023-07-03T20:13:00.553Z,7.70
2023-07-03T20:15:32.099Z,7.27
2023-07-03T20:18:02.245Z,7.20
2023-07-03T20:20:32.378Z,7.00
2023-07-03T20:23:02.803Z,7.33
2023-07-03T20:25:32.783Z,7.90
2023-07-03T20:28:03.725Z,8.00
2023-07-03T20:30:33.474Z,7.27
2023-07-03T20:33:03.403Z,8.03
2023-07-03T20:35:33.455Z,8.40
2023-07-03T20:38:03.784Z,7.90
2023-07-03T20:40:33.552Z,8.27
2023-07-03T20:43:04.021Z,8.37
2023-07-03T20:45:34.970Z,8.70
2023-07-03T20:48:06.554Z,8.23
2023-07-03T20:50:42.364Z,7.97
2023-07-03T20:53:12.445Z,8.20
2023-07-03T20:55:44.259Z,8.20
2023-07-03T20:58:14.155Z,8.30
2023-07-03T21:00:44.269Z,8.23
2023-07-03T21:03:14.259Z,8.57
2023-07-03T21:05:44.714Z,7.13
2023-07-03T21:08:15.233Z,7.90
2023-07-03T21:10:45.472Z,8.03
2023-07-03T21:13:15.673Z,7.90
2023-07-03T21:15:46.538Z,8.13
2023-07-03T21:18:16.325Z,7.93
2023-07-03T21:20:46.826Z,7.73
2023-07-03T21:23:16.576Z,7.97
2023-07-03T21:25:48.326Z,8.27
2023-07-03T21:28:18.647Z,8.20
2023-07-03T21:30:48.585Z,7.60
2023-07-03T21:33:20.857Z,7.93
2023-07-03T21:35:52.693Z,7.93
2023-07-03T21:38:23.622Z,8.37
2023-07-03T21:40:54.966Z,8.43
2023-07-03T21:43:25.848Z,8.98
2023-07-03T21:46:03.207Z,8.00
2023-07-03T21:48:35.774Z,7.90
2023-07-03T21:51:07.325Z,8.83
2023-07-03T21:53:37.239Z,8.60
2023-07-03T21:56:10.019Z,8.27
2023-07-03T21:58:41.580Z,8.27
2023-07-03T22:01:19.068Z,8.13
2023-07-03T22:03:49.127Z,8.57
2023-07-03T22:06:19.269Z,8.27
2023-07-03T22:08:50.855Z,8.73
2023-07-03T22:11:20.977Z,8.38
2023-07-03T22:13:51.287Z,8.80
2023-07-03T22:16:22.042Z,8.63
2023-07-03T22:18:52.353Z,8.17
2023-07-03T22:21:22.583Z,8.87
2023-07-03T22:23:52.784Z,9.13
2023-07-03T22:26:22.668Z,8.97
2023-07-03T22:28:52.806Z,8.33
2023-07-03T22:31:24.974Z,9.60
2023-07-03T22:33:55.111Z,9.40
2023-07-03T22:36:25.431Z,9.13
2023-07-03T22:38:55.138Z,8.40
2023-07-03T22:41:25.455Z,8.83
2023-07-03T22:43:55.802Z,9.37
2023-07-03T22:46:26.350Z,8.83
2023-07-03T22:48:56.650Z,8.53
2023-07-03T22:51:26.962Z,9.30
2023-07-03T22:53:57.430Z,8.97
2023-07-03T22:56:28.425Z,8.43
2023-07-03T22:58:58.341Z,8.78
2023-07-03T23:01:28.662Z,8.57
2023-07-03T23:03:58.409Z,9.63
2023-07-03T23:06:28.277Z,8.73
2023-07-03T23:08:58.416Z,8.73
2023-07-03T23:11:28.656Z,8.57
2023-07-03T23:13:59.099Z,8.93
2023-07-03T23:16:29.421Z,8.77
2023-07-03T23:18:59.495Z,9.27
2023-07-03T23:21:29.623Z,9.20
2023-07-03T23:23:59.524Z,8.63
2023-07-03T23:26:29.478Z,9.37
2023-07-03T23:29:02.032Z,9.07
2023-07-03T23:31:32.049Z,8.93
2023-07-03T23:34:02.390Z,9.50
2023-07-03T23:36:34.013Z,8.80
2023-07-03T23:41:33.266Z,8.93
2023-07-03T23:44:03.264Z,9.23
2023-07-03T23:46:33.277Z,8.80
2023-07-03T23:49:03.379Z,8.37
2023-07-03T23:51:33.294Z,8.63
2023-07-03T23:54:03.608Z,8.27
2023-07-03T23:56:33.242Z,8.73
2023-07-03T23:59:04.382Z,9.50
